This is the latest recevied weather packets stored in our database for station/object OK9CPU-9. If no packets are shown the sender has not sent any weather packets the latest 10 day(s).
| Time | Temp. | Humidity | Pressure | Rain* | Wind** | Luminosity | Snow |
|---|---|---|---|---|---|---|---|
| 1777288710 | 32.78° C | 21% | 1022.6 hPa | - | - | - | - |
| 1777287715 | 33.33° C | 21% | 1022.9 hPa | - | - | - | - |
| 1777286720 | 33.89° C | 20% | 1022.9 hPa | - | - | - | - |
| 1777285725 | 34.44° C | 19% | 1023.1 hPa | - | - | - | - |
| 1777284738 | 34.44° C | 19% | 1023.3 hPa | - | - | - | - |
| 1777283742 | 35° C | 18% | 1023.3 hPa | - | - | - | - |
| 1777277765 | 32.78° C | 17% | 1024.2 hPa | - | - | - | - |
| 1777276777 | 31.11° C | 17% | 1024.2 hPa | - | - | - | - |
| 1777274787 | 27.78° C | 18% | 1024.2 hPa | - | - | - | - |
| 1777271802 | 22.78° C | 19% | 1024.5 hPa | - | - | - | - |
| 1777270807 | 20.56° C | 19% | 1024.6 hPa | - | - | - | - |
| 1777268817 | 15.56° C | 20% | 1024.6 hPa | - | - | - | - |
| 1777266827 | 8.89° C | 24% | 1024.8 hPa | - | - | - | - |
| 1777265824 | 6.67° C | 26% | 1024.7 hPa | - | - | - | - |
| 1777264837 | 3.89° C | 29% | 1024.7 hPa | - | - | - | - |
| 1777262839 | 2.22° C | 30% | 1024.4 hPa | - | - | - | - |
| 1777261844 | 1.67° C | 31% | 1024.5 hPa | - | - | - | - |
| 1777260849 | 1.67° C | 31% | 1024.4 hPa | - | - | - | - |
| 1777259861 | 1.67° C | 31% | 1024.5 hPa | - | - | - | - |
| 1777258859 | 2.22° C | 32% | 1024.6 hPa | - | - | - | - |
| 1777257871 | 2.22° C | 31% | 1024.5 hPa | - | - | - | - |
| 1777256869 | 2.22° C | 31% | 1024.5 hPa | - | - | - | - |
| 1777255881 | 2.22° C | 32% | 1024.8 hPa | - | - | - | - |
| 1777254879 | 2.22° C | 32% | 1024.5 hPa | - | - | - | - |
| 1777253891 | 2.78° C | 32% | 1024.7 hPa | - | - | - | - |
* Rain since midnight (hover to see other rain measurements)
** Current wind speed in m/s (hover to see current wind gust speed)